メインページ
METAR-TAF:

METAR-TAF

空港 :

青森空港

青森, 日本

緯度: 40-44N, 経度: 140-42E, 海抜: 199m

現時点の気象観測

当レポートは26分前の09:00(UTC)に作成
南/南東の風 3kt
気温 -4°C
湿度 93%
気圧 1017 hPa
視程10km以上
高度2000ftの雲はほとんどない
高度5000ftの雲は散在している
高度13000ftの千切れ雲あり

METAR: RJSA 130900Z 16003KT 9999 FEW020 SCT050 BKN130 M04/M05 Q1017

時間: 18:26 (09:26 UTC)

予報

当レポートは4時間10分前の05:16(UTC)に作成
予報は13日の 06時(UTC)から 14日の 12時(UTC)まで有効
西/南西の風 8kt
視程: 8000m
高度500ftの雲はほとんどない
高度1500ftの雲は散在している
高度2000ftの千切れ雲あり
弱いにわか雪
13日の 15時(UTC)から 13日の 18時(UTC)まで一時的に
視程: 1500m
高度500ftの雲はほとんどない
高度800ftの千切れ雲あり
高度1500ftの千切れ雲あり
弱いにわか雪
13日の 18時(UTC)から 14日の 00時(UTC)まで一時的に
視程: 0500m
高度300ftの
にわか雪
14日の 00時(UTC)から 14日の 06時(UTC)まで一時的に
視程: 0700m
高度300ftの雲はほとんどない
高度500ftの千切れ雲あり
高度800ftの千切れ雲あり
にわか雪
14日の 06時(UTC)から 14日の 12時(UTC)まで一時的に
視程: 0500m
高度300ftの
にわか雪

TAF: RJSA 130516Z 1306/1412 24008KT 8000 -SHSN FEW005 SCT015 BKN020 TEMPO 1315/1318 1500 -SHSN FEW005 BKN008 BKN015 TEMPO 1318/1400 0500 SHSN VV003 TEMPO 1400/1406 0700 SHSN FEW003 BKN005 BKN008 TEMPO 1406/1412 0500 SHSN VV003

4,000以上の空港の気象観測と天気予報(METAR報とTAF報)

利用可能な観測所は地図上に黄色い丸と赤い丸で示す。

丸の上にカーソルを重ねると観測所名を参照できる。

次にクリックすると気象観測と天気予報を参照できる。

マップの切り替え:黒色「×」印の緑ボタンをクリックして拡大、「-」印の緑ボタンをクリックして縮小、緑色の三角印をクリックして隣りの地図に切り替え


METAR-TAF: